createdAt,value
2019-05-22T00:01:44.646Z,15.20
2019-05-22T00:02:44.398Z,15.90
2019-05-22T00:03:44.974Z,15.30
2019-05-22T00:04:45.186Z,17.00
2019-05-22T00:05:44.199Z,17.10
2019-05-22T00:06:44.175Z,17.20
2019-05-22T00:07:44.155Z,18.20
2019-05-22T00:08:44.210Z,18.60
2019-05-22T00:09:44.149Z,18.70
2019-05-22T00:10:44.115Z,18.50
2019-05-22T00:11:44.386Z,19.70
2019-05-22T00:12:46.814Z,18.70
2019-05-22T00:13:44.096Z,19.10
2019-05-22T00:14:44.075Z,19.00
2019-05-22T00:15:44.111Z,18.50
2019-05-22T00:16:44.060Z,18.20
2019-05-22T00:17:44.064Z,18.20
2019-05-22T00:18:44.032Z,17.90
2019-05-22T00:19:44.033Z,19.10
2019-05-22T00:20:44.004Z,18.80
2019-05-22T00:21:43.992Z,19.80
2019-05-22T00:22:44.306Z,19.60
2019-05-22T00:23:43.995Z,19.00
2019-05-22T00:24:43.960Z,19.50
2019-05-22T00:25:43.941Z,19.20
2019-05-22T00:26:43.969Z,19.50
2019-05-22T00:27:43.919Z,17.60
2019-05-22T00:28:43.928Z,16.60
2019-05-22T00:29:43.894Z,17.40
2019-05-22T00:30:43.886Z,16.50
2019-05-22T00:31:43.893Z,16.80
2019-05-22T00:32:43.888Z,16.80
2019-05-22T00:33:43.905Z,16.20
2019-05-22T00:34:43.851Z,17.50
2019-05-22T00:35:43.833Z,16.30
2019-05-22T00:36:43.821Z,16.50
2019-05-22T00:37:43.848Z,16.20
2019-05-22T00:38:43.805Z,16.50
2019-05-22T00:39:43.808Z,15.80
2019-05-22T00:40:43.791Z,15.80
2019-05-22T00:41:43.760Z,14.70
2019-05-22T00:42:43.756Z,14.90
2019-05-22T00:43:43.761Z,15.40
2019-05-22T00:44:43.751Z,15.30
2019-05-22T00:45:43.723Z,15.40
2019-05-22T00:46:43.717Z,15.30
2019-05-22T00:47:43.692Z,15.20
2019-05-22T00:48:43.679Z,14.70
2019-05-22T00:49:43.718Z,15.30
2019-05-22T00:50:43.678Z,15.70
2019-05-22T00:51:43.645Z,13.90
2019-05-22T00:53:54.884Z,14.50
2019-05-22T00:54:54.829Z,14.60
2019-05-22T00:55:54.960Z,15.20
2019-05-22T00:56:54.838Z,15.40
2019-05-22T00:57:54.861Z,15.10
2019-05-22T00:58:54.717Z,14.10
2019-05-22T00:59:54.667Z,13.70
2019-05-22T01:00:54.658Z,14.00
2019-05-22T01:01:54.631Z,14.60
2019-05-22T01:02:54.631Z,13.00
2019-05-22T01:03:54.601Z,13.70
2019-05-22T01:04:54.591Z,13.40
2019-05-22T01:05:54.650Z,12.70
2019-05-22T01:06:54.574Z,12.00
2019-05-22T01:07:54.557Z,12.20
2019-05-22T01:08:54.542Z,12.20
2019-05-22T01:09:54.565Z,12.50
2019-05-22T01:10:54.523Z,11.60
2019-05-22T01:11:54.569Z,12.20
2019-05-22T01:12:54.497Z,12.40
2019-05-22T01:13:54.490Z,11.10
2019-05-22T01:14:54.485Z,11.60
2019-05-22T01:15:54.471Z,11.90
2019-05-22T01:16:54.458Z,11.50
2019-05-22T01:17:54.477Z,10.70
2019-05-22T01:18:54.431Z,11.90
2019-05-22T01:19:54.482Z,11.60
2019-05-22T01:20:54.426Z,10.40
2019-05-22T01:21:54.408Z,11.20
2019-05-22T01:22:54.439Z,11.20
2019-05-22T01:23:54.383Z,11.80
2019-05-22T01:24:54.370Z,11.40
2019-05-22T01:25:54.420Z,10.70
2019-05-22T01:26:54.355Z,11.60
2019-05-22T01:27:54.335Z,11.60
2019-05-22T01:28:54.333Z,11.40
2019-05-22T01:29:54.328Z,10.80
2019-05-22T01:30:54.310Z,11.00
2019-05-22T01:31:54.293Z,11.40
2019-05-22T01:32:54.298Z,10.70
2019-05-22T01:33:54.289Z,10.40
2019-05-22T01:34:54.256Z,10.60
2019-05-22T01:35:54.255Z,10.30
2019-05-22T01:36:54.245Z,9.60
2019-05-22T01:37:54.232Z,10.00
2019-05-22T01:38:54.263Z,10.90
2019-05-22T01:39:54.214Z,9.70
2019-05-22T01:40:54.203Z,9.10
2019-05-22T01:41:54.181Z,10.00
2019-05-22T01:42:54.174Z,10.10
2019-05-22T01:43:54.162Z,10.10
2019-05-22T01:45:04.811Z,10.70
2019-05-22T01:45:55.179Z,10.30
2019-05-22T01:46:54.133Z,10.70
2019-05-22T01:47:54.171Z,10.30
2019-05-22T01:48:54.109Z,10.60
2019-05-22T01:49:54.110Z,11.50
2019-05-22T01:50:54.087Z,12.50
2019-05-22T01:51:54.130Z,13.30
2019-05-22T01:52:54.130Z,14.10
2019-05-22T01:53:54.086Z,14.50
2019-05-22T01:54:54.052Z,14.40
2019-05-22T01:55:54.040Z,14.90
2019-05-22T01:56:54.019Z,15.10
2019-05-22T01:57:54.014Z,14.40
2019-05-22T01:58:54.011Z,14.40
2019-05-22T01:59:54.012Z,14.90
2019-05-22T02:00:53.971Z,14.30
2019-05-22T02:01:53.952Z,13.90
2019-05-22T02:02:53.942Z,14.40
2019-05-22T02:03:53.933Z,13.90
2019-05-22T02:04:53.943Z,13.60
2019-05-22T02:05:53.929Z,13.80
2019-05-22T02:06:53.910Z,13.10
2019-05-22T02:07:53.892Z,13.20
2019-05-22T02:08:53.892Z,13.50
2019-05-22T02:09:53.886Z,13.20
2019-05-22T02:10:53.857Z,12.60
2019-05-22T02:11:53.895Z,12.50
2019-05-22T02:12:53.835Z,13.00
2019-05-22T02:13:53.842Z,13.20
2019-05-22T02:14:53.825Z,12.60
2019-05-22T02:15:53.806Z,13.40
2019-05-22T02:16:57.228Z,13.90
2019-05-22T02:17:56.503Z,12.80
2019-05-22T02:18:53.774Z,12.60
2019-05-22T02:19:53.773Z,12.60
2019-05-22T02:20:53.758Z,13.60
2019-05-22T02:21:53.738Z,13.70
2019-05-22T02:22:53.742Z,13.40
2019-05-22T02:23:53.730Z,13.00
2019-05-22T02:24:53.703Z,11.90
2019-05-22T02:25:53.704Z,11.50
2019-05-22T02:26:53.699Z,11.00
2019-05-22T02:27:53.722Z,10.50
2019-05-22T02:28:53.668Z,10.30
2019-05-22T02:29:53.661Z,10.40
2019-05-22T02:30:53.646Z,10.70
2019-05-22T02:31:55.444Z,10.50
2019-05-22T02:32:53.628Z,12.10
2019-05-22T02:33:53.630Z,12.10
2019-05-22T02:34:53.595Z,12.80
2019-05-22T02:35:53.619Z,13.70
2019-05-22T02:36:53.578Z,12.90
2019-05-22T02:37:53.559Z,13.10
2019-05-22T02:38:53.553Z,12.20
2019-05-22T02:39:53.561Z,12.00
2019-05-22T02:40:53.546Z,12.40
2019-05-22T02:41:53.562Z,11.80
2019-05-22T02:42:53.506Z,12.50
2019-05-22T02:43:53.495Z,11.50
2019-05-22T02:44:53.506Z,10.90
2019-05-22T02:45:53.474Z,9.30
2019-05-22T02:46:54.109Z,9.40
2019-05-22T02:47:53.479Z,9.70
2019-05-22T02:48:53.437Z,9.80
2019-05-22T02:49:53.455Z,8.80
2019-05-22T02:50:53.418Z,7.70
2019-05-22T02:51:53.404Z,7.50
2019-05-22T02:52:53.407Z,8.30
2019-05-22T02:53:53.408Z,8.20
2019-05-22T02:54:53.429Z,8.10
2019-05-22T02:55:53.386Z,7.80
2019-05-22T02:56:53.354Z,6.70
2019-05-22T02:57:53.354Z,6.20
2019-05-22T02:58:53.325Z,6.60
2019-05-22T02:59:53.319Z,6.80
2019-05-22T03:00:53.336Z,7.00
2019-05-22T03:01:53.341Z,7.10
2019-05-22T03:02:53.284Z,6.90
2019-05-22T03:03:53.278Z,7.40
2019-05-22T03:04:53.260Z,7.00
2019-05-22T03:05:53.252Z,6.80
2019-05-22T03:06:53.259Z,5.90
2019-05-22T03:07:53.348Z,6.70
2019-05-22T03:08:53.221Z,6.40
2019-05-22T03:09:53.210Z,6.80
2019-05-22T03:10:53.200Z,6.30
2019-05-22T03:11:53.186Z,6.00
2019-05-22T03:12:53.212Z,6.40
2019-05-22T03:13:53.166Z,6.10
2019-05-22T03:14:53.169Z,6.30
2019-05-22T03:15:53.156Z,7.00
2019-05-22T03:16:53.132Z,6.70
2019-05-22T03:17:53.125Z,6.60
2019-05-22T03:19:07.854Z,7.40
2019-05-22T03:19:53.101Z,8.20
2019-05-22T03:20:53.084Z,8.30
2019-05-22T03:21:53.074Z,9.00
2019-05-22T03:22:53.066Z,8.60
2019-05-22T03:23:53.107Z,8.80
2019-05-22T03:24:53.071Z,8.80
2019-05-22T03:25:53.035Z,8.70
2019-05-22T03:26:53.030Z,8.60
2019-05-22T03:27:53.022Z,8.40
2019-05-22T03:28:52.996Z,8.60
2019-05-22T03:29:53.046Z,8.10
2019-05-22T03:30:53.054Z,7.30
2019-05-22T03:31:52.986Z,7.50
2019-05-22T03:32:52.967Z,7.30
2019-05-22T03:33:52.977Z,7.00
2019-05-22T03:34:52.948Z,6.90
2019-05-22T03:35:52.936Z,6.90
2019-05-22T03:36:52.921Z,7.00
2019-05-22T03:37:52.900Z,7.50
2019-05-22T03:38:52.954Z,7.70
2019-05-22T03:39:52.875Z,7.20
2019-05-22T03:40:52.915Z,7.50
2019-05-22T03:41:52.854Z,7.30
2019-05-22T03:42:52.850Z,7.50
2019-05-22T03:43:52.835Z,7.40
2019-05-22T03:44:52.856Z,7.60
2019-05-22T03:45:52.817Z,7.70
2019-05-22T03:46:52.822Z,7.70
2019-05-22T03:47:52.793Z,7.30
2019-05-22T03:48:52.785Z,7.00
2019-05-22T03:49:52.775Z,5.80
2019-05-22T03:50:52.780Z,5.80
2019-05-22T03:51:52.796Z,6.50
2019-05-22T03:52:52.737Z,6.30
2019-05-22T03:53:52.732Z,6.30
2019-05-22T03:54:52.713Z,6.70
2019-05-22T03:55:52.706Z,7.00
2019-05-22T03:56:52.719Z,7.00
2019-05-22T03:57:52.695Z,7.50
2019-05-22T03:58:52.671Z,7.00
2019-05-22T03:59:52.666Z,7.20
2019-05-22T04:00:52.652Z,7.10
2019-05-22T04:01:52.642Z,6.60
2019-05-22T04:02:52.705Z,7.30
2019-05-22T04:03:52.621Z,7.20
2019-05-22T04:04:52.650Z,6.60
2019-05-22T04:05:52.622Z,7.10
2019-05-22T04:06:52.585Z,6.30
2019-05-22T04:07:52.583Z,6.20
2019-05-22T04:08:52.613Z,5.90
2019-05-22T04:09:52.635Z,6.10
2019-05-22T04:10:52.657Z,6.80
2019-05-22T04:11:52.555Z,6.00
2019-05-22T04:12:52.516Z,6.90
2019-05-22T04:13:52.635Z,6.30
2019-05-22T04:14:52.503Z,7.50
2019-05-22T04:15:52.504Z,7.40
2019-05-22T04:16:52.481Z,7.50
2019-05-22T04:17:52.476Z,7.50
2019-05-22T04:18:52.468Z,7.20
2019-05-22T04:19:52.485Z,7.90
2019-05-22T04:20:52.436Z,7.60
2019-05-22T04:21:52.474Z,8.00
2019-05-22T04:22:53.429Z,8.40
2019-05-22T04:23:52.399Z,8.50
2019-05-22T04:24:52.412Z,8.20
2019-05-22T04:25:53.501Z,8.10
2019-05-22T04:26:52.369Z,8.10
2019-05-22T04:27:52.362Z,8.20
2019-05-22T04:28:52.367Z,8.10
2019-05-22T04:29:52.334Z,7.80
2019-05-22T04:30:52.357Z,8.00
2019-05-22T04:31:52.323Z,8.00
2019-05-22T04:32:52.302Z,7.60
2019-05-22T04:33:52.285Z,7.80
2019-05-22T04:34:52.284Z,7.70
2019-05-22T04:35:55.118Z,7.40
2019-05-22T04:36:52.286Z,7.00
2019-05-22T04:37:52.304Z,7.20
2019-05-22T04:38:52.255Z,7.10
2019-05-22T04:39:52.240Z,6.90
2019-05-22T04:40:53.266Z,6.80
2019-05-22T04:44:00.110Z,5.70
2019-05-22T04:45:00.023Z,5.90
2019-05-22T04:46:12.732Z,5.40
2019-05-22T04:47:00.082Z,5.80
2019-05-22T04:48:31.398Z,5.50
2019-05-22T04:49:00.021Z,5.90
2019-05-22T04:50:18.431Z,5.80
2019-05-22T04:51:38.363Z,5.50
2019-05-22T04:57:54.418Z,5.30
2019-05-22T04:58:55.224Z,4.90
2019-05-22T05:00:09.698Z,4.70
2019-05-22T05:00:55.208Z,5.80
2019-05-22T05:01:57.087Z,5.00
2019-05-22T05:02:55.216Z,5.20
2019-05-22T05:04:47.012Z,5.50
2019-05-22T05:04:55.085Z,5.40
2019-05-22T05:13:30.980Z,5.00
2019-05-22T05:15:44.280Z,5.60
2019-05-22T05:16:40.229Z,5.60
2019-05-22T05:19:35.730Z,4.50
2019-05-22T05:20:35.593Z,5.70
2019-05-22T05:25:24.724Z,5.30
2019-05-22T05:26:24.586Z,6.10
2019-05-22T05:31:47.114Z,5.30
2019-05-22T05:35:19.272Z,5.70
2019-05-22T05:38:27.427Z,5.90
2019-05-22T05:42:47.494Z,7.30
2019-05-22T05:54:51.595Z,11.00
2019-05-22T05:57:36.010Z,11.00
2019-05-22T06:04:35.081Z,9.20
2019-05-22T06:09:42.866Z,7.90
2019-05-22T06:11:52.116Z,6.30
2019-05-22T06:13:56.282Z,6.40
2019-05-22T06:15:23.096Z,4.40
2019-05-22T06:17:49.205Z,5.10
2019-05-22T06:21:09.190Z,4.90
2019-05-22T06:22:10.995Z,5.30
2019-05-22T06:23:10.000Z,5.80
2019-05-22T07:13:06.988Z,5.50
2019-05-22T07:13:09.879Z,11.90
2019-05-22T07:17:59.922Z,8.80
2019-05-22T07:20:26.791Z,8.00
2019-05-22T07:21:46.828Z,8.90
2019-05-22T07:26:12.976Z,7.40
2019-05-22T07:27:27.659Z,7.70
2019-05-22T07:31:02.655Z,12.40
2019-05-22T07:32:02.542Z,16.50
2019-05-22T07:33:20.403Z,10.00
2019-05-22T07:40:31.816Z,9.20
2019-05-22T07:42:59.101Z,9.30
2019-05-22T07:46:06.078Z,8.30
2019-05-22T07:56:53.550Z,9.60
2019-05-22T08:06:28.026Z,8.80
2019-05-22T08:17:00.255Z,9.20
2019-05-22T08:34:20.874Z,11.10
2019-05-22T08:42:09.819Z,8.90
2019-05-22T09:03:45.234Z,9.40
2019-05-22T09:11:37.175Z,8.90
2019-05-22T09:39:59.749Z,9.20
2019-05-22T09:42:15.649Z,11.00
2019-05-22T09:45:29.126Z,12.60
2019-05-22T09:45:29.940Z,14.20
2019-05-22T10:09:12.569Z,14.10
2019-05-22T10:19:50.994Z,16.90
2019-05-22T10:22:37.375Z,19.60
2019-05-22T10:27:48.793Z,20.70
2019-05-22T10:43:24.557Z,18.20
2019-05-22T10:44:23.779Z,21.50
2019-05-22T10:45:22.749Z,21.80
2019-05-22T10:49:33.686Z,21.50
2019-05-22T10:51:19.180Z,21.70
2019-05-22T10:51:19.674Z,23.00
2019-05-22T10:53:07.312Z,21.60
2019-05-22T10:55:53.374Z,21.00
2019-05-22T11:35:42.083Z,19.00
2019-05-22T12:00:10.862Z,16.10
2019-05-22T12:50:19.339Z,13.50
2019-05-22T13:03:13.656Z,12.90
2019-05-22T13:07:24.707Z,12.00
2019-05-22T13:10:37.860Z,11.50
2019-05-22T13:16:14.204Z,10.20
2019-05-22T13:18:49.057Z,12.40
2019-05-22T13:19:58.715Z,13.00
2019-05-22T13:21:41.772Z,13.40
2019-05-22T13:21:52.130Z,13.10
2019-05-22T13:23:15.042Z,12.00
2019-05-22T13:23:49.826Z,13.10
2019-05-22T13:24:49.895Z,12.80
2019-05-22T13:25:48.801Z,12.40
2019-05-22T13:26:48.833Z,12.40
2019-05-22T13:27:48.757Z,11.70
2019-05-22T13:29:02.838Z,12.40
2019-05-22T13:29:59.045Z,12.80
2019-05-22T13:30:58.312Z,12.70
2019-05-22T13:31:49.009Z,12.20
2019-05-22T13:32:48.821Z,11.80
2019-05-22T13:35:16.600Z,9.50
2019-05-22T13:36:35.593Z,12.70
2019-05-22T13:37:16.523Z,13.00
2019-05-22T13:38:16.314Z,12.80
2019-05-22T13:41:55.138Z,11.30
2019-05-22T13:43:16.074Z,11.90
2019-05-22T13:43:54.964Z,12.40
2019-05-22T13:44:55.014Z,11.90
2019-05-22T13:45:55.086Z,12.30
2019-05-22T13:46:54.885Z,12.20
2019-05-22T13:47:54.843Z,12.10
2019-05-22T13:48:54.771Z,11.80
2019-05-22T13:50:23.483Z,12.50
2019-05-22T13:52:29.098Z,10.10
2019-05-22T13:53:29.099Z,12.30
2019-05-22T13:54:52.760Z,12.30
2019-05-22T13:55:29.091Z,11.50
2019-05-22T13:56:28.893Z,12.10
2019-05-22T13:57:43.472Z,11.80
2019-05-22T13:58:29.001Z,12.10
2019-05-22T13:59:29.265Z,12.00
2019-05-22T14:00:28.888Z,12.10
2019-05-22T14:01:28.873Z,12.30
2019-05-22T14:02:28.795Z,12.10
2019-05-22T14:03:28.790Z,12.30
2019-05-22T14:04:28.757Z,12.90
2019-05-22T14:05:29.645Z,12.40
2019-05-22T14:06:28.740Z,12.30
2019-05-22T14:07:28.730Z,11.80
2019-05-22T14:08:28.731Z,12.30
2019-05-22T14:09:28.710Z,11.90
2019-05-22T14:10:28.716Z,12.00
2019-05-22T14:11:28.713Z,12.20
2019-05-22T14:12:28.682Z,11.30
2019-05-22T14:13:28.681Z,11.50
2019-05-22T14:14:28.631Z,12.40
2019-05-22T14:15:47.329Z,11.70
2019-05-22T14:16:30.156Z,12.20
2019-05-22T14:17:28.631Z,11.90
2019-05-22T14:18:28.631Z,12.40
2019-05-22T14:19:28.674Z,12.30
2019-05-22T14:20:28.564Z,12.00
2019-05-22T14:21:28.619Z,12.00
2019-05-22T14:22:28.540Z,11.50
2019-05-22T14:23:28.606Z,11.60
2019-05-22T14:24:28.588Z,11.70
2019-05-22T14:25:28.506Z,11.20
2019-05-22T14:26:29.995Z,11.70
2019-05-22T14:27:28.484Z,11.50
2019-05-22T14:28:28.467Z,12.20
2019-05-22T14:29:28.480Z,12.00
2019-05-22T14:30:28.476Z,11.80
2019-05-22T14:31:28.465Z,12.50
2019-05-22T14:32:30.448Z,13.00
2019-05-22T14:33:28.599Z,12.60
2019-05-22T14:34:28.409Z,12.40
2019-05-22T14:35:45.031Z,12.50
2019-05-22T14:36:29.392Z,12.80
2019-05-22T14:37:28.451Z,12.50
2019-05-22T14:38:28.358Z,13.60
2019-05-22T14:39:28.343Z,12.90
2019-05-22T14:40:28.346Z,13.90
2019-05-22T14:41:29.185Z,13.10
2019-05-22T14:42:28.318Z,13.40
2019-05-22T14:43:28.319Z,12.20
2019-05-22T14:44:28.321Z,12.30
2019-05-22T14:45:29.145Z,13.20
2019-05-22T14:46:28.289Z,12.70
2019-05-22T14:47:29.152Z,12.30
2019-05-22T14:48:28.244Z,13.40
2019-05-22T14:49:28.287Z,13.30
2019-05-22T14:50:28.271Z,12.90
2019-05-22T14:51:29.180Z,12.40
2019-05-22T14:52:28.229Z,13.10
2019-05-22T14:53:28.216Z,12.50
2019-05-22T14:54:49.294Z,12.70
2019-05-22T14:55:28.210Z,12.50
2019-05-22T14:56:28.162Z,12.60
2019-05-22T14:57:28.184Z,13.10
2019-05-22T14:58:28.198Z,12.00
2019-05-22T14:59:28.172Z,12.20
2019-05-22T15:00:28.205Z,12.30
2019-05-22T15:01:28.153Z,12.50
2019-05-22T15:02:28.094Z,12.00
2019-05-22T15:03:28.104Z,11.90
2019-05-22T15:04:28.106Z,12.80
2019-05-22T15:05:28.056Z,12.50
2019-05-22T15:06:28.118Z,12.50
2019-05-22T15:07:28.050Z,12.50
2019-05-22T15:08:28.063Z,12.60
2019-05-22T15:11:13.800Z,12.60
2019-05-22T15:11:46.979Z,12.50
2019-05-22T15:12:47.931Z,12.30
2019-05-22T15:13:46.861Z,12.50
2019-05-22T15:14:46.874Z,13.00
2019-05-22T15:15:47.842Z,13.00
2019-05-22T15:16:46.822Z,12.80
2019-05-22T15:17:46.836Z,12.40
2019-05-22T15:18:46.820Z,11.90
2019-05-22T15:19:46.780Z,12.90
2019-05-22T15:20:46.788Z,13.00
2019-05-22T15:21:46.798Z,13.30
2019-05-22T15:22:46.757Z,12.90
2019-05-22T15:24:58.680Z,10.70
2019-05-22T15:25:58.656Z,12.50
2019-05-22T15:26:58.785Z,14.40
2019-05-22T15:27:58.449Z,14.10
2019-05-22T15:28:58.432Z,13.30
2019-05-22T15:29:58.434Z,15.00
2019-05-22T15:30:58.407Z,14.60
2019-05-22T15:31:58.456Z,14.10
2019-05-22T15:32:58.394Z,14.80
2019-05-22T15:33:58.366Z,14.70
2019-05-22T15:34:58.363Z,15.00
2019-05-22T15:35:59.187Z,15.00
2019-05-22T15:36:58.340Z,15.10
2019-05-22T15:37:58.385Z,15.30
2019-05-22T15:38:58.299Z,15.50
2019-05-22T15:39:59.295Z,14.90
2019-05-22T15:40:58.311Z,14.60
2019-05-22T15:41:58.332Z,15.60
2019-05-22T15:42:58.315Z,14.50
2019-05-22T15:43:58.345Z,15.60
2019-05-22T15:44:58.254Z,15.80
2019-05-22T15:45:58.268Z,15.70
2019-05-22T15:46:58.244Z,15.20
2019-05-22T15:47:58.257Z,15.60
2019-05-22T15:48:58.201Z,15.90
2019-05-22T15:49:58.236Z,15.90
2019-05-22T15:50:58.215Z,16.30
2019-05-22T15:51:58.190Z,16.50
2019-05-22T15:52:59.574Z,17.20
2019-05-22T15:53:58.189Z,17.60
2019-05-22T15:54:58.156Z,16.20
2019-05-22T15:55:58.139Z,15.50
2019-05-22T15:56:58.188Z,15.90
2019-05-22T15:57:58.097Z,15.80
2019-05-22T15:58:58.108Z,15.70
2019-05-22T15:59:59.071Z,16.20
2019-05-22T16:00:58.252Z,15.00
2019-05-22T16:01:58.067Z,15.50
2019-05-22T16:02:58.093Z,16.00
2019-05-22T16:03:58.064Z,16.10
2019-05-22T16:04:58.682Z,15.40
2019-05-22T16:05:58.022Z,16.30
2019-05-22T16:06:58.081Z,15.60
2019-05-22T16:07:59.042Z,18.50
2019-05-22T16:09:23.794Z,16.80
2019-05-22T16:09:57.976Z,17.50
2019-05-22T16:11:00.386Z,16.20
2019-05-22T16:11:58.017Z,16.60
2019-05-22T16:12:57.957Z,16.50
2019-05-22T16:13:58.685Z,16.70
2019-05-22T16:14:58.900Z,15.70
2019-05-22T16:15:57.886Z,16.10
2019-05-22T16:16:57.905Z,16.50
2019-05-22T16:18:10.848Z,16.60
2019-05-22T16:18:57.851Z,16.00
2019-05-22T16:19:57.843Z,15.50
2019-05-22T16:21:09.383Z,16.60
2019-05-22T16:22:18.465Z,16.40
2019-05-22T16:22:58.127Z,18.10
2019-05-22T16:24:03.598Z,16.90
2019-05-22T16:24:57.949Z,16.40
2019-05-22T16:26:51.545Z,17.80
2019-05-22T16:26:58.788Z,17.60
2019-05-22T16:28:14.423Z,16.40
2019-05-22T16:28:58.036Z,17.90
2019-05-22T16:29:57.834Z,17.50
2019-05-22T16:31:30.747Z,17.80
2019-05-22T16:31:58.013Z,18.00
2019-05-22T16:32:57.791Z,18.40
2019-05-22T16:34:15.151Z,18.10
2019-05-22T16:36:54.821Z,15.90
2019-05-22T16:37:54.745Z,19.10
2019-05-22T16:39:29.882Z,18.10
2019-05-22T16:39:55.268Z,17.70
2019-05-22T16:40:54.687Z,17.80
2019-05-22T16:41:54.584Z,18.30
2019-05-22T16:42:54.578Z,17.90
2019-05-22T16:44:11.232Z,18.90
2019-05-22T16:44:55.489Z,18.30
2019-05-22T16:45:54.699Z,18.40
2019-05-22T16:46:54.594Z,18.50
2019-05-22T16:47:54.529Z,18.80
2019-05-22T16:50:14.046Z,17.10
2019-05-22T16:51:14.764Z,17.50
2019-05-22T16:52:13.963Z,18.60
2019-05-22T16:57:29.321Z,16.20
2019-05-22T16:58:28.660Z,18.00
2019-05-22T16:59:28.422Z,17.70
2019-05-22T17:00:28.345Z,17.50
2019-05-22T17:01:28.676Z,16.80
2019-05-22T17:02:28.307Z,18.10
2019-05-22T17:03:28.322Z,16.80
2019-05-22T17:04:28.368Z,18.20
2019-05-22T17:05:28.308Z,17.30
2019-05-22T17:06:31.100Z,17.90
2019-05-22T17:07:29.105Z,17.90
2019-05-22T17:09:58.454Z,14.50
2019-05-22T17:10:59.002Z,17.50
2019-05-22T17:11:59.395Z,17.10
2019-05-22T17:12:58.207Z,18.20
2019-05-22T17:13:58.229Z,18.00
2019-05-22T17:14:58.223Z,17.70
2019-05-22T17:15:58.185Z,17.20
2019-05-22T17:16:58.182Z,17.20
2019-05-22T17:17:59.143Z,17.60
2019-05-22T17:18:58.149Z,17.90
2019-05-22T17:19:58.112Z,17.80
2019-05-22T17:20:58.093Z,16.60
2019-05-22T17:21:58.177Z,17.10
2019-05-22T17:22:58.102Z,17.10
2019-05-22T17:24:12.664Z,17.40
2019-05-22T17:24:58.123Z,17.10
2019-05-22T17:25:58.061Z,16.60
2019-05-22T17:26:58.083Z,16.70
2019-05-22T17:27:58.039Z,17.30
2019-05-22T17:28:58.095Z,16.30
2019-05-22T17:29:57.995Z,17.30
2019-05-22T17:30:58.018Z,17.20
2019-05-22T17:31:57.965Z,17.40
2019-05-22T17:32:58.027Z,17.60
2019-05-22T17:33:58.014Z,17.40
2019-05-22T17:34:57.936Z,17.60
2019-05-22T17:35:57.927Z,17.30
2019-05-22T17:36:57.922Z,17.40
2019-05-22T17:37:57.931Z,17.30
2019-05-22T17:38:57.885Z,18.10
2019-05-22T17:39:57.937Z,17.40
2019-05-22T17:40:57.901Z,17.90
2019-05-22T17:41:57.895Z,17.30
2019-05-22T17:42:57.843Z,17.50
2019-05-22T17:43:57.848Z,18.10
2019-05-22T17:44:57.923Z,16.70
2019-05-22T17:45:57.811Z,17.90
2019-05-22T17:46:57.812Z,17.20
2019-05-22T17:47:57.794Z,16.30
2019-05-22T17:48:58.695Z,15.60
2019-05-22T17:49:57.776Z,16.30
2019-05-22T17:50:57.817Z,15.50
2019-05-22T17:51:57.755Z,16.40
2019-05-22T17:52:57.895Z,15.50
2019-05-22T17:53:57.739Z,15.70
2019-05-22T17:54:57.730Z,15.90
2019-05-22T17:55:57.827Z,15.20
2019-05-22T17:56:57.708Z,15.00
2019-05-22T17:57:57.917Z,14.10
2019-05-22T17:58:57.694Z,14.90
2019-05-22T17:59:57.683Z,13.60
2019-05-22T18:00:57.645Z,15.10
2019-05-22T18:01:57.706Z,14.00
2019-05-22T18:02:57.622Z,13.80
2019-05-22T18:03:57.615Z,14.20
2019-05-22T18:04:57.668Z,13.40
2019-05-22T18:05:57.597Z,13.60
2019-05-22T18:06:57.593Z,14.30
2019-05-22T18:07:59.642Z,13.80
2019-05-22T18:08:58.555Z,13.90
2019-05-22T18:09:57.598Z,13.90
2019-05-22T18:10:57.568Z,14.60
2019-05-22T18:11:57.531Z,13.80
2019-05-22T18:12:57.566Z,13.80
2019-05-22T18:13:57.524Z,13.10
2019-05-22T18:14:57.534Z,13.70
2019-05-22T18:15:57.492Z,13.80
2019-05-22T18:16:57.479Z,13.80
2019-05-22T18:17:57.462Z,13.90
2019-05-22T18:18:57.475Z,14.30
2019-05-22T18:19:57.515Z,14.40
2019-05-22T18:20:57.430Z,14.30
2019-05-22T18:21:57.411Z,14.00
2019-05-22T18:22:57.428Z,14.30
2019-05-22T18:23:57.427Z,14.00
2019-05-22T18:24:57.445Z,14.40
2019-05-22T18:25:57.376Z,13.90
2019-05-22T18:26:57.412Z,13.90
2019-05-22T18:27:58.352Z,13.70
2019-05-22T18:28:57.338Z,14.10
2019-05-22T18:29:57.377Z,13.60
2019-05-22T18:30:57.464Z,13.60
2019-05-22T18:31:57.375Z,12.80
2019-05-22T18:32:57.302Z,13.30
2019-05-22T18:33:58.164Z,13.60
2019-05-22T18:34:58.357Z,13.20
2019-05-22T18:35:57.330Z,13.60
2019-05-22T18:36:57.273Z,13.80
2019-05-22T18:37:58.238Z,13.80
2019-05-22T18:38:57.244Z,13.90
2019-05-22T18:39:57.253Z,13.00
2019-05-22T18:40:57.311Z,13.30
2019-05-22T18:41:57.188Z,13.30
2019-05-22T18:42:57.199Z,13.20
2019-05-22T18:43:57.207Z,13.20
2019-05-22T18:44:57.196Z,12.90
2019-05-22T18:45:57.146Z,12.60
2019-05-22T18:46:57.161Z,13.10
2019-05-22T18:47:57.152Z,12.70
2019-05-22T18:48:57.118Z,12.70
2019-05-22T18:49:57.173Z,12.00
2019-05-22T18:50:57.097Z,12.10
2019-05-22T18:51:57.111Z,11.80
2019-05-22T18:52:57.113Z,12.30
2019-05-22T18:53:57.086Z,11.80
2019-05-22T18:54:57.076Z,12.50
2019-05-22T18:55:57.088Z,11.60
2019-05-22T18:56:57.089Z,11.50
2019-05-22T18:57:57.009Z,12.00
2019-05-22T18:58:57.030Z,11.40
2019-05-22T19:00:02.760Z,11.80
2019-05-22T19:00:57.974Z,11.80
2019-05-22T19:01:57.014Z,11.30
2019-05-22T19:02:57.030Z,12.00
2019-05-22T19:03:57.010Z,11.90
2019-05-22T19:04:56.963Z,11.20
2019-05-22T19:05:56.930Z,12.20
2019-05-22T19:06:56.937Z,11.70
2019-05-22T19:07:56.991Z,12.00
2019-05-22T19:08:57.924Z,12.50
2019-05-22T19:09:56.918Z,11.90
2019-05-22T19:10:56.914Z,11.30
2019-05-22T19:11:56.846Z,11.60
2019-05-22T19:12:56.827Z,11.40
2019-05-22T19:13:56.844Z,11.30
2019-05-22T19:14:56.862Z,11.90
2019-05-22T19:15:56.815Z,11.50
2019-05-22T19:16:56.791Z,11.60
2019-05-22T19:17:56.788Z,11.20
2019-05-22T19:18:56.814Z,11.30
2019-05-22T19:19:56.803Z,12.30
2019-05-22T19:20:56.765Z,11.40
2019-05-22T19:21:56.732Z,11.70
2019-05-22T19:23:00.910Z,11.30
2019-05-22T19:23:56.747Z,11.80
2019-05-22T19:24:56.716Z,11.00
2019-05-22T19:25:56.706Z,11.30
2019-05-22T19:26:56.687Z,12.30
2019-05-22T19:27:56.680Z,11.90
2019-05-22T19:28:56.658Z,11.50
2019-05-22T19:29:56.700Z,11.50
2019-05-22T19:30:56.631Z,11.90
2019-05-22T19:31:56.630Z,11.30
2019-05-22T19:32:56.624Z,12.10
2019-05-22T19:33:56.656Z,11.70
2019-05-22T19:34:56.584Z,11.40
2019-05-22T19:35:56.605Z,12.10
2019-05-22T19:36:56.576Z,12.50
2019-05-22T19:37:56.546Z,12.70
2019-05-22T19:38:56.539Z,13.10
2019-05-22T19:39:56.531Z,12.50
2019-05-22T19:40:56.517Z,13.10
2019-05-22T19:42:03.585Z,11.50
2019-05-22T19:42:56.542Z,12.20
2019-05-22T19:43:56.489Z,13.50
2019-05-22T19:44:56.484Z,12.60
2019-05-22T19:45:56.447Z,11.90
2019-05-22T19:46:56.482Z,12.50
2019-05-22T19:47:56.481Z,12.50
2019-05-22T19:48:56.438Z,12.20
2019-05-22T19:49:56.421Z,13.00
2019-05-22T19:50:56.401Z,12.50
2019-05-22T19:51:56.396Z,11.80
2019-05-22T19:52:56.404Z,12.10
2019-05-22T19:53:56.371Z,12.10
2019-05-22T19:54:56.403Z,11.50
2019-05-22T19:55:56.353Z,12.30
2019-05-22T19:56:56.336Z,11.50
2019-05-22T19:57:56.371Z,11.60
2019-05-22T19:58:56.329Z,11.30
2019-05-22T19:59:56.294Z,11.40
2019-05-22T20:00:56.287Z,11.40
2019-05-22T20:01:56.283Z,11.40
2019-05-22T20:02:56.263Z,11.70
2019-05-22T20:03:56.282Z,11.10
2019-05-22T20:04:56.250Z,10.90
2019-05-22T20:05:56.273Z,11.40
2019-05-22T20:06:56.225Z,11.00
2019-05-22T20:07:56.245Z,11.10
2019-05-22T20:08:56.265Z,11.30
2019-05-22T20:09:56.283Z,10.90
2019-05-22T20:10:56.190Z,11.00
2019-05-22T20:11:56.169Z,11.30
2019-05-22T20:12:56.159Z,10.70
2019-05-22T20:13:56.171Z,11.60
2019-05-22T20:14:56.163Z,11.10
2019-05-22T20:15:56.129Z,11.30
2019-05-22T20:16:56.118Z,11.40
2019-05-22T20:17:56.122Z,11.10
2019-05-22T20:18:56.146Z,11.10
2019-05-22T20:19:56.123Z,10.90
2019-05-22T20:20:56.088Z,11.40
2019-05-22T20:21:59.938Z,11.30
2019-05-22T20:22:56.046Z,11.00
2019-05-22T20:23:56.048Z,11.60
2019-05-22T20:24:56.049Z,10.80
2019-05-22T20:25:56.056Z,10.70
2019-05-22T20:26:56.002Z,11.80
2019-05-22T20:27:56.004Z,11.20
2019-05-22T20:28:56.023Z,11.70
2019-05-22T20:29:55.976Z,11.00
2019-05-22T20:30:55.997Z,11.60
2019-05-22T20:31:55.985Z,10.90
2019-05-22T20:32:55.943Z,11.70
2019-05-22T20:33:55.934Z,10.80